Time;durP1;ratioP1;P1;durP2;ratioP2;P2;SDS_P1;SDS_P2;PMS_P1;PMS_P2;Temp;Humidity;BMP_temperature;BMP_pressure;BME280_temperature;BME280_humidity;BME280_pressure;Samples;Min_cycle;Max_cycle;Signal;HPM_P1;HPM_P2
2023/06/10 00:01:22;;;;;;;;;;;23.50;54.00;;;;;;10411412;28;93653;-72
2023/06/10 00:06:24;;;;;;;;;;;23.50;53.90;;;;;;10410867;28;93657;-71
2023/06/10 00:11:26;;;;;;;;;;;23.50;53.90;;;;;;10390234;28;96906;-71
2023/06/10 00:16:28;;;;;;;;;;;23.40;53.80;;;;;;10411125;28;94396;-71
2023/06/10 00:21:36;;;;;;;;;;;23.50;53.90;;;;;;10392761;28;94534;-71
2023/06/10 00:26:39;;;;;;;;;;;23.40;53.90;;;;;;10410261;28;94488;-71
2023/06/10 00:31:41;;;;;;;;;;;23.40;53.80;;;;;;10409984;28;93984;-71
2023/06/10 00:36:43;;;;;;;;;;;23.50;53.80;;;;;;10409946;28;93865;-72
2023/06/10 00:41:44;;;;;;;;;;;23.40;53.70;;;;;;10410263;28;94583;-71
2023/06/10 00:46:46;;;;;;;;;;;23.50;53.80;;;;;;10411247;28;93548;-72
2023/06/10 00:51:48;;;;;;;;;;;23.40;53.60;;;;;;10414537;27;94384;-72
2023/06/10 00:56:50;;;;;;;;;;;23.40;53.50;;;;;;10417627;28;94466;-72
2023/06/10 01:01:52;;;;;;;;;;;23.40;53.50;;;;;;10415031;28;96859;-71
2023/06/10 01:07:03;;;;;;;;;;;23.40;53.40;;;;;;10416750;28;94683;-71
2023/06/10 01:12:09;;;;;;;;;;;23.40;53.40;;;;;;10417077;28;94497;-71
2023/06/10 01:17:12;;;;;;;;;;;23.50;53.40;;;;;;10416852;28;93973;-72
2023/06/10 01:22:15;;;;;;;;;;;23.50;53.40;;;;;;10415871;28;93446;-71
2023/06/10 01:27:19;;;;;;;;;;;23.40;53.30;;;;;;10416497;28;94498;-69
2023/06/10 01:32:25;;;;;;;;;;;23.40;53.30;;;;;;10416535;28;93883;-72
2023/06/10 01:37:27;;;;;;;;;;;23.40;53.10;;;;;;10416335;28;92914;-71
2023/06/10 01:42:29;;;;;;;;;;;23.40;53.10;;;;;;10415633;28;92762;-71
2023/06/10 01:47:31;;;;;;;;;;;23.40;53.00;;;;;;10416446;28;93832;-72
2023/06/10 01:52:33;;;;;;;;;;;23.40;53.30;;;;;;10413091;28;97126;-71
2023/06/10 01:57:35;;;;;;;;;;;23.40;53.10;;;;;;10415600;28;94876;-72
2023/06/10 02:02:37;;;;;;;;;;;23.40;52.90;;;;;;10414432;27;93658;-72
2023/06/10 02:07:39;;;;;;;;;;;23.30;52.80;;;;;;10415627;28;94349;-72
2023/06/10 02:12:41;;;;;;;;;;;23.40;52.90;;;;;;10397546;28;93547;-71
2023/06/10 02:17:44;;;;;;;;;;;23.30;52.90;;;;;;10414901;28;93763;-72
2023/06/10 02:22:46;;;;;;;;;;;23.30;53.90;;;;;;10413871;28;93412;-72
2023/06/10 02:27:48;;;;;;;;;;;23.30;52.90;;;;;;10414767;28;93410;-71
2023/06/10 02:32:50;;;;;;;;;;;23.30;52.80;;;;;;10414323;28;93513;-71
2023/06/10 02:37:52;;;;;;;;;;;23.30;52.80;;;;;;10395765;28;93851;-72
2023/06/10 02:42:54;;;;;;;;;;;23.30;52.80;;;;;;10410580;28;96508;-71
2023/06/10 02:47:56;;;;;;;;;;;23.30;52.80;;;;;;10413069;28;94585;-71
2023/06/10 02:52:58;;;;;;;;;;;23.20;52.80;;;;;;10412909;28;93558;-71
2023/06/10 02:58:00;;;;;;;;;;;23.20;52.80;;;;;;10412416;28;94715;-71
2023/06/10 03:03:03;;;;;;;;;;;23.20;52.80;;;;;;10395444;28;93514;-71
2023/06/10 03:08:05;;;;;;;;;;;23.20;52.80;;;;;;10412887;28;93765;-70
2023/06/10 03:13:07;;;;;;;;;;;23.20;52.80;;;;;;10413227;27;93686;-71
2023/06/10 03:18:08;;;;;;;;;;;23.20;52.70;;;;;;10414228;28;93822;-72
2023/06/10 03:23:10;;;;;;;;;;;23.20;52.70;;;;;;10394183;28;94367;-71
2023/06/10 03:28:12;;;;;;;;;;;23.20;52.70;;;;;;10395456;28;93775;-71
2023/06/10 03:33:14;;;;;;;;;;;23.20;52.70;;;;;;10410461;28;94965;-71
2023/06/10 03:38:16;;;;;;;;;;;23.20;52.70;;;;;;10412467;28;94462;-71
2023/06/10 03:43:18;;;;;;;;;;;23.20;52.60;;;;;;10411784;28;94448;-70
2023/06/10 03:48:20;;;;;;;;;;;23.20;52.60;;;;;;10411636;28;94486;-71
2023/06/10 03:53:22;;;;;;;;;;;23.20;52.60;;;;;;10410518;28;93526;-71
2023/06/10 03:58:24;;;;;;;;;;;23.20;52.70;;;;;;10411804;28;93687;-71
2023/06/10 04:03:27;;;;;;;;;;;23.20;52.60;;;;;;10411133;28;94609;-71
2023/06/10 04:08:29;;;;;;;;;;;23.20;52.60;;;;;;10411733;28;93072;-70
2023/06/10 04:13:31;;;;;;;;;;;23.20;52.60;;;;;;10410923;28;93526;-71
2023/06/10 04:18:33;;;;;;;;;;;23.20;52.60;;;;;;10410775;28;94760;-71
2023/06/10 04:23:36;;;;;;;;;;;23.20;52.60;;;;;;10408653;27;95935;-71
2023/06/10 04:28:38;;;;;;;;;;;23.20;52.60;;;;;;10383459;28;94332;-72
2023/06/10 04:33:40;;;;;;;;;;;23.20;52.60;;;;;;10417704;28;94577;-71
2023/06/10 04:38:42;;;;;;;;;;;23.20;52.70;;;;;;10417121;28;95434;-72
2023/06/10 04:43:44;;;;;;;;;;;23.20;52.70;;;;;;10418068;28;94518;-71
2023/06/10 05:01:01;;;;;;;;;;;23.20;52.90;;;;;;10370773;28;92027;-72
2023/06/10 05:06:03;;;;;;;;;;;23.20;53.00;;;;;;10368805;28;94469;-71
2023/06/10 05:11:06;;;;;;;;;;;23.10;53.20;;;;;;10362054;28;94766;-71
2023/06/10 05:16:08;;;;;;;;;;;23.10;53.10;;;;;;10367859;28;97662;-71
2023/06/10 05:33:24;;;;;;;;;;;23.10;53.30;;;;;;10407106;28;94370;-72
2023/06/10 05:38:47;;;;;;;;;;;23.10;53.30;;;;;;10374894;28;93868;-71
2023/06/10 05:43:49;;;;;;;;;;;23.10;53.40;;;;;;10376081;28;94064;-71
2023/06/10 05:48:51;;;;;;;;;;;23.20;53.40;;;;;;10400226;28;93794;-72
2023/06/10 05:53:53;;;;;;;;;;;23.10;53.40;;;;;;10408304;28;93735;-71
2023/06/10 05:58:54;;;;;;;;;;;23.20;53.40;;;;;;10406070;28;94981;-71
2023/06/10 06:03:56;;;;;;;;;;;23.20;53.40;;;;;;10386284;28;94840;-71
2023/06/10 06:08:58;;;;;;;;;;;23.20;53.40;;;;;;10368594;28;97456;-71
2023/06/10 06:13:59;;;;;;;;;;;23.30;53.50;;;;;;10350988;28;95121;-71
2023/06/10 06:19:01;;;;;;;;;;;23.30;53.40;;;;;;10365603;28;93674;-71
2023/06/10 06:24:03;;;;;;;;;;;23.40;53.40;;;;;;10367465;28;95748;-71
2023/06/10 06:29:05;;;;;;;;;;;23.40;53.50;;;;;;10371066;28;95076;-71
2023/06/10 06:34:06;;;;;;;;;;;23.40;53.30;;;;;;10397871;28;94243;-72
2023/06/10 06:39:08;;;;;;;;;;;23.40;53.10;;;;;;10352635;28;92891;-72
2023/06/10 06:44:10;;;;;;;;;;;23.50;53.20;;;;;;10373359;28;92752;-72
2023/06/10 06:49:12;;;;;;;;;;;23.50;53.20;;;;;;10371263;28;94445;-71
2023/06/10 06:54:13;;;;;;;;;;;23.60;53.20;;;;;;10371974;28;94407;-70
2023/06/10 06:59:17;;;;;;;;;;;23.60;53.10;;;;;;10368848;28;95486;-70
2023/06/10 07:04:19;;;;;;;;;;;23.70;53.20;;;;;;10371226;28;93440;-70
2023/06/10 07:09:21;;;;;;;;;;;23.70;53.10;;;;;;10369959;28;93565;-71
2023/06/10 07:14:23;;;;;;;;;;;23.80;53.10;;;;;;10392481;28;98692;-71
2023/06/10 07:19:24;;;;;;;;;;;23.80;53.20;;;;;;10379288;28;93607;-71
2023/06/10 07:24:26;;;;;;;;;;;23.90;51.90;;;;;;10396029;28;94366;-70
2023/06/10 07:29:28;;;;;;;;;;;23.80;51.60;;;;;;10411682;28;93676;-70
2023/06/10 07:34:29;;;;;;;;;;;23.80;52.00;;;;;;10394726;28;93738;-70
2023/06/10 07:39:31;;;;;;;;;;;23.80;51.80;;;;;;10411594;28;93281;-71
2023/06/10 07:44:33;;;;;;;;;;;23.70;53.00;;;;;;10410681;28;92930;-71
2023/06/10 07:49:35;;;;;;;;;;;23.70;53.00;;;;;;10407964;28;95902;-69
2023/06/10 07:54:37;;;;;;;;;;;23.70;52.70;;;;;;10411087;28;93458;-69
2023/06/10 07:59:38;;;;;;;;;;;23.70;52.50;;;;;;10408545;27;93642;-69
2023/06/10 08:04:40;;;;;;;;;;;23.70;53.40;;;;;;10410999;28;94744;-67
2023/06/10 08:09:42;;;;;;;;;;;23.70;52.20;;;;;;10410230;28;93763;-67
2023/06/10 08:14:44;;;;;;;;;;;23.70;52.40;;;;;;10393220;28;94786;-69
2023/06/10 08:19:45;;;;;;;;;;;23.80;52.60;;;;;;10410085;28;93467;-69
2023/06/10 08:24:47;;;;;;;;;;;23.80;52.70;;;;;;10412421;28;92771;-68
2023/06/10 08:29:50;;;;;;;;;;;23.80;52.80;;;;;;10409852;28;94567;-69
2023/06/10 08:34:52;;;;;;;;;;;23.70;52.80;;;;;;10410846;28;92990;-69
2023/06/10 08:39:53;;;;;;;;;;;23.80;53.00;;;;;;10407161;28;96025;-69
2023/06/10 08:44:56;;;;;;;;;;;23.80;53.10;;;;;;10409225;28;94437;-69
2023/06/10 08:50:03;;;;;;;;;;;23.90;53.10;;;;;;10410059;28;93612;-69
2023/06/10 08:55:14;;;;;;;;;;;23.90;53.10;;;;;;10390341;28;94833;-68
2023/06/10 09:00:16;;;;;;;;;;;23.90;53.10;;;;;;10408958;28;94067;-68
2023/06/10 09:05:18;;;;;;;;;;;23.90;53.10;;;;;;10409233;28;94594;-68
2023/06/10 09:10:20;;;;;;;;;;;23.80;53.30;;;;;;10408822;27;93413;-68
2023/06/10 09:15:22;;;;;;;;;;;23.80;53.40;;;;;;10416852;28;92843;-69
2023/06/10 09:20:24;;;;;;;;;;;23.80;53.50;;;;;;10415724;28;93591;-68
2023/06/10 09:25:38;;;;;;;;;;;23.80;53.60;;;;;;10415491;28;93484;-68
2023/06/10 09:30:40;;;;;;;;;;;23.80;54.60;;;;;;10413251;28;96999;-69
2023/06/10 09:35:49;;;;;;;;;;;23.80;54.20;;;;;;10415162;28;93032;-69
2023/06/10 09:40:51;;;;;;;;;;;23.80;54.30;;;;;;10415672;28;94456;-69
2023/06/10 09:45:55;;;;;;;;;;;23.80;54.50;;;;;;10415816;28;94240;-68
2023/06/10 09:50:57;;;;;;;;;;;23.80;54.80;;;;;;10415338;28;94549;-68
2023/06/10 09:55:59;;;;;;;;;;;23.90;54.80;;;;;;10414196;28;93405;-68
2023/06/10 10:01:04;;;;;;;;;;;23.90;54.50;;;;;;10414823;28;93663;-69
2023/06/10 10:06:06;;;;;;;;;;;24.00;54.50;;;;;;10415833;28;93862;-68
2023/06/10 10:11:08;;;;;;;;;;;24.10;54.40;;;;;;10414286;28;93419;-68
2023/06/10 10:16:11;;;;;;;;;;;24.10;54.20;;;;;;10396361;28;94018;-69
2023/06/10 10:21:15;;;;;;;;;;;24.20;54.10;;;;;;10411703;27;96880;-69
2023/06/10 10:26:17;;;;;;;;;;;24.30;54.00;;;;;;10395645;28;93571;-69
2023/06/10 10:31:19;;;;;;;;;;;24.40;54.40;;;;;;10414172;28;94528;-69
2023/06/10 10:36:20;;;;;;;;;;;24.40;54.10;;;;;;10379657;28;94088;-69
2023/06/10 10:41:23;;;;;;;;;;;24.40;54.20;;;;;;10414177;28;94486;-69
2023/06/10 10:46:24;;;;;;;;;;;24.50;54.20;;;;;;10396125;28;93993;-69
2023/06/10 10:51:33;;;;;;;;;;;24.50;54.00;;;;;;10412860;28;94507;-69
2023/06/10 10:56:35;;;;;;;;;;;24.50;53.90;;;;;;10414753;28;92707;-68
2023/06/10 11:01:40;;;;;;;;;;;24.50;53.70;;;;;;10413878;28;94800;-68
2023/06/10 11:06:51;;;;;;;;;;;24.50;53.40;;;;;;10412059;28;93416;-68
2023/06/10 11:11:56;;;;;;;;;;;24.60;53.50;;;;;;10392221;28;95770;-68
2023/06/10 11:16:58;;;;;;;;;;;24.50;53.40;;;;;;10412547;28;93395;-68
2023/06/10 11:22:01;;;;;;;;;;;24.50;53.40;;;;;;10395096;28;94496;-68
2023/06/10 11:27:17;;;;;;;;;;;24.50;53.40;;;;;;10394478;28;93312;-66
2023/06/10 11:32:18;;;;;;;;;;;24.50;53.40;;;;;;10414453;28;94458;-69
2023/06/10 11:37:21;;;;;;;;;;;24.50;54.70;;;;;;10411532;27;94107;-69
2023/06/10 11:42:23;;;;;;;;;;;24.60;54.70;;;;;;10394344;28;94774;-70
2023/06/10 11:47:26;;;;;;;;;;;24.50;54.50;;;;;;10377309;28;91826;-69
2023/06/10 11:52:29;;;;;;;;;;;24.50;54.60;;;;;;10411191;28;94527;-68
2023/06/10 11:57:34;;;;;;;;;;;24.60;54.40;;;;;;10411398;28;93730;-69
2023/06/10 12:02:35;;;;;;;;;;;24.50;54.30;;;;;;10409115;28;96837;-69
2023/06/10 12:07:37;;;;;;;;;;;24.60;54.00;;;;;;10412000;28;93378;-68
2023/06/10 12:12:40;;;;;;;;;;;24.60;53.90;;;;;;10410475;28;94274;-70
2023/06/10 12:17:43;;;;;;;;;;;24.60;53.90;;;;;;10411124;28;93939;-69
2023/06/10 12:22:45;;;;;;;;;;;24.60;53.80;;;;;;10410349;28;93552;-69
2023/06/10 12:27:51;;;;;;;;;;;24.60;53.70;;;;;;10409954;28;93791;-69
2023/06/10 12:32:53;;;;;;;;;;;24.60;52.80;;;;;;10393088;28;94587;-69
2023/06/10 12:38:02;;;;;;;;;;;24.60;52.40;;;;;;10393084;28;93265;-69
2023/06/10 12:43:03;;;;;;;;;;;24.70;50.40;;;;;;10409972;28;93547;-69
2023/06/10 12:48:09;;;;;;;;;;;24.70;49.40;;;;;;10395242;28;93487;-70
2023/06/10 12:53:12;;;;;;;;;;;24.80;48.00;;;;;;10413622;28;95865;-69
2023/06/10 12:58:13;;;;;;;;;;;24.90;47.70;;;;;;10417666;28;94798;-69
2023/06/10 13:03:15;;;;;;;;;;;25.00;47.40;;;;;;10416301;28;93834;-70
2023/06/10 13:08:17;;;;;;;;;;;25.00;46.60;;;;;;10398832;28;93965;-69
2023/06/10 13:13:18;;;;;;;;;;;25.10;45.40;;;;;;10417029;28;95130;-70
2023/06/10 13:18:20;;;;;;;;;;;25.10;44.90;;;;;;10415195;28;93561;-70
2023/06/10 13:23:22;;;;;;;;;;;25.10;43.90;;;;;;10417221;28;94682;-70
2023/06/10 13:28:23;;;;;;;;;;;25.10;42.80;;;;;;10416669;28;93125;-70
2023/06/10 13:33:25;;;;;;;;;;;25.10;43.30;;;;;;10416298;28;93589;-69
2023/06/10 13:38:27;;;;;;;;;;;25.10;42.10;;;;;;10415066;28;93531;-69
2023/06/10 13:43:29;;;;;;;;;;;25.10;42.70;;;;;;10412693;28;96600;-69
2023/06/10 13:48:31;;;;;;;;;;;25.10;43.70;;;;;;10415079;28;94433;-71
2023/06/10 13:53:32;;;;;;;;;;;25.00;44.20;;;;;;10414615;28;93706;-70
2023/06/10 13:58:38;;;;;;;;;;;25.00;44.00;;;;;;10413434;27;93469;-70
2023/06/10 14:03:40;;;;;;;;;;;25.00;44.00;;;;;;10414211;28;94622;-70
2023/06/10 14:08:42;;;;;;;;;;;24.90;43.90;;;;;;10413904;28;93760;-69
2023/06/10 14:13:44;;;;;;;;;;;24.90;43.30;;;;;;10414217;28;92945;-70
2023/06/10 14:18:45;;;;;;;;;;;24.80;43.50;;;;;;10414846;28;93504;-70
2023/06/10 14:23:49;;;;;;;;;;;24.90;43.00;;;;;;10414902;28;93524;-69
2023/06/10 14:28:50;;;;;;;;;;;24.90;41.70;;;;;;10414329;28;94162;-70
2023/06/10 14:33:52;;;;;;;;;;;24.80;41.20;;;;;;10413114;28;95857;-70
2023/06/10 14:38:54;;;;;;;;;;;24.90;40.30;;;;;;10414363;28;94760;-71
2023/06/10 14:43:56;;;;;;;;;;;24.90;40.20;;;;;;10413708;28;93811;-71
2023/06/10 14:48:59;;;;;;;;;;;25.10;39.40;;;;;;10413653;28;94406;-70
2023/06/10 14:54:01;;;;;;;;;;;25.20;39.50;;;;;;10414002;28;93834;-70
2023/06/10 14:59:03;;;;;;;;;;;25.30;38.60;;;;;;10388066;28;94441;-69
2023/06/10 15:04:05;;;;;;;;;;;25.30;39.10;;;;;;10372574;28;94452;-70
2023/06/10 15:09:07;;;;;;;;;;;25.40;38.30;;;;;;10371166;28;92634;-71
2023/06/10 15:14:08;;;;;;;;;;;25.50;39.30;;;;;;10372552;28;93445;-71
2023/06/10 15:19:10;;;;;;;;;;;25.60;39.00;;;;;;10371283;28;94449;-70
2023/06/10 15:24:12;;;;;;;;;;;25.50;38.40;;;;;;10350122;28;95895;-70
2023/06/10 15:29:13;;;;;;;;;;;25.50;37.70;;;;;;10369983;28;94434;-70
2023/06/10 15:34:15;;;;;;;;;;;25.50;37.10;;;;;;10371166;28;94564;-71
2023/06/10 15:39:18;;;;;;;;;;;25.50;37.20;;;;;;10370618;28;94503;-70
2023/06/10 15:44:20;;;;;;;;;;;25.50;35.90;;;;;;10369943;28;94587;-71
2023/06/10 15:49:21;;;;;;;;;;;25.50;34.90;;;;;;10369919;28;93603;-71
2023/06/10 15:54:23;;;;;;;;;;;25.40;36.10;;;;;;10370487;28;93563;-71
2023/06/10 15:59:25;;;;;;;;;;;25.40;36.30;;;;;;10370009;28;93004;-71
2023/06/10 16:04:27;;;;;;;;;;;25.40;35.20;;;;;;10369586;28;93788;-71
2023/06/10 16:09:29;;;;;;;;;;;25.40;36.20;;;;;;10351265;28;93530;-71
2023/06/10 16:14:31;;;;;;;;;;;25.40;35.90;;;;;;10349462;28;100310;-70
2023/06/10 16:19:32;;;;;;;;;;;25.40;35.90;;;;;;10350584;28;94285;-69
2023/06/10 16:24:34;;;;;;;;;;;25.40;36.50;;;;;;10376206;28;93654;-66
2023/06/10 16:29:36;;;;;;;;;;;25.40;38.00;;;;;;10375884;28;94097;-67
2023/06/10 16:34:37;;;;;;;;;;;25.50;35.70;;;;;;10358553;28;93437;-68
2023/06/10 16:39:39;;;;;;;;;;;25.50;36.00;;;;;;10375282;28;93772;-67
2023/06/10 16:44:41;;;;;;;;;;;25.50;35.50;;;;;;10376330;28;94241;-66
2023/06/10 16:49:43;;;;;;;;;;;25.50;36.70;;;;;;10375160;28;93811;-66
2023/06/10 16:54:44;;;;;;;;;;;25.50;35.50;;;;;;10374587;28;93305;-73
2023/06/10 16:59:46;;;;;;;;;;;25.60;35.30;;;;;;10375745;28;94405;-70
2023/06/10 17:04:48;;;;;;;;;;;25.60;36.80;;;;;;10372830;28;95890;-69
2023/06/10 17:09:49;;;;;;;;;;;25.60;37.90;;;;;;10375066;28;93466;-70
2023/06/10 17:14:51;;;;;;;;;;;25.60;37.20;;;;;;10375385;28;93411;-71
2023/06/10 17:19:53;;;;;;;;;;;25.70;36.80;;;;;;10375389;28;94503;-71
2023/06/10 17:24:55;;;;;;;;;;;25.70;36.80;;;;;;10375795;28;93614;-70
2023/06/10 17:29:56;;;;;;;;;;;25.70;36.00;;;;;;10375532;28;94602;-70
2023/06/10 17:34:58;;;;;;;;;;;25.80;36.20;;;;;;10373961;28;94664;-71
2023/06/10 17:40:00;;;;;;;;;;;25.90;35.20;;;;;;10374980;28;93993;-69
2023/06/10 17:45:02;;;;;;;;;;;25.90;35.60;;;;;;10374503;28;93920;-70
2023/06/10 17:50:04;;;;;;;;;;;25.90;35.60;;;;;;10373087;28;93563;-68
2023/06/10 17:55:05;;;;;;;;;;;25.90;35.70;;;;;;10370980;28;96970;-71
2023/06/10 18:00:07;;;;;;;;;;;25.90;37.10;;;;;;10373599;28;94607;-72
2023/06/10 18:05:09;;;;;;;;;;;25.90;37.40;;;;;;10373713;28;94446;-72
2023/06/10 18:10:12;;;;;;;;;;;25.90;36.90;;;;;;10374022;28;93359;-73
2023/06/10 18:15:13;;;;;;;;;;;26.00;36.80;;;;;;10372658;28;93582;-72
2023/06/10 18:20:15;;;;;;;;;;;26.00;37.00;;;;;;10371650;28;93542;-72
2023/06/10 18:25:17;;;;;;;;;;;26.10;37.00;;;;;;10373634;28;93484;-72
2023/06/10 18:30:18;;;;;;;;;;;26.10;37.10;;;;;;10372693;28;92750;-71
2023/06/10 18:35:21;;;;;;;;;;;26.10;37.00;;;;;;10372086;28;94457;-72
2023/06/10 18:40:22;;;;;;;;;;;26.10;37.10;;;;;;10372344;28;94611;-69
2023/06/10 18:45:24;;;;;;;;;;;26.00;37.50;;;;;;10369357;28;96244;-73
2023/06/10 18:50:26;;;;;;;;;;;25.90;38.40;;;;;;10371765;28;94514;-70
2023/06/10 18:55:28;;;;;;;;;;;25.80;39.50;;;;;;10371322;28;93768;-68
2023/06/10 19:00:33;;;;;;;;;;;25.70;39.70;;;;;;10371792;28;94545;-72
2023/06/10 19:05:35;;;;;;;;;;;25.60;40.10;;;;;;10371003;28;94057;-68
2023/06/10 19:10:37;;;;;;;;;;;25.60;40.50;;;;;;10370920;28;94500;-70
2023/06/10 19:15:39;;;;;;;;;;;25.50;40.90;;;;;;10370856;28;93647;-72
2023/06/10 19:20:42;;;;;;;;;;;25.40;41.00;;;;;;10353017;28;93111;-72
2023/06/10 19:25:44;;;;;;;;;;;25.30;41.20;;;;;;10352496;28;93579;-72
2023/06/10 19:30:46;;;;;;;;;;;25.30;41.40;;;;;;10369652;28;94505;-73
2023/06/10 19:35:47;;;;;;;;;;;25.20;41.60;;;;;;10368807;28;97117;-73
2023/06/10 19:40:51;;;;;;;;;;;25.20;41.70;;;;;;10369210;28;114002;-72
2023/06/10 19:45:53;;;;;;;;;;;25.10;42.00;;;;;;10370332;28;94134;-73
2023/06/10 19:50:54;;;;;;;;;;;25.10;42.20;;;;;;10369698;28;93510;-73
2023/06/10 19:55:56;;;;;;;;;;;25.00;42.40;;;;;;10369811;28;94073;-72
2023/06/10 20:00:58;;;;;;;;;;;25.00;42.60;;;;;;10372952;28;93557;-72
2023/06/10 20:06:00;;;;;;;;;;;25.00;42.80;;;;;;10372362;28;93508;-72
2023/06/10 20:11:02;;;;;;;;;;;24.90;43.00;;;;;;10369222;28;93368;-72
2023/06/10 20:16:03;;;;;;;;;;;24.90;43.20;;;;;;10368649;28;93452;-72
2023/06/10 20:21:05;;;;;;;;;;;24.90;43.30;;;;;;10370066;28;94572;-73
2023/06/10 20:26:07;;;;;;;;;;;24.90;43.40;;;;;;10366084;28;95842;-72
2023/06/10 20:31:08;;;;;;;;;;;24.90;43.50;;;;;;10369647;28;93653;-72
2023/06/10 20:36:10;;;;;;;;;;;24.90;43.60;;;;;;10368635;28;94469;-71
2023/06/10 20:41:12;;;;;;;;;;;24.80;43.60;;;;;;10367809;28;93560;-72
2023/06/10 20:46:14;;;;;;;;;;;24.80;43.30;;;;;;10368104;28;94619;-73
2023/06/10 20:51:15;;;;;;;;;;;24.80;43.30;;;;;;10366761;28;96253;-73
2023/06/10 20:56:17;;;;;;;;;;;24.80;43.30;;;;;;10367279;28;93473;-72
2023/06/10 21:01:19;;;;;;;;;;;24.80;43.30;;;;;;10349785;28;92029;-73
2023/06/10 21:06:22;;;;;;;;;;;24.80;43.30;;;;;;10367795;28;93323;-72
2023/06/10 21:11:23;;;;;;;;;;;24.80;43.40;;;;;;10356222;28;92812;-73
2023/06/10 21:16:26;;;;;;;;;;;24.80;43.60;;;;;;10372712;28;95661;-73
2023/06/10 21:21:28;;;;;;;;;;;24.80;43.90;;;;;;10374261;28;93331;-72
2023/06/10 21:26:30;;;;;;;;;;;24.70;44.00;;;;;;10374586;28;93675;-73
2023/06/10 21:31:32;;;;;;;;;;;24.70;44.20;;;;;;10374632;28;93648;-73
2023/06/10 21:36:34;;;;;;;;;;;24.70;44.50;;;;;;10374719;28;94539;-73
2023/06/10 21:41:36;;;;;;;;;;;24.70;44.90;;;;;;10373914;28;94344;-73
2023/06/10 21:46:37;;;;;;;;;;;24.60;45.10;;;;;;10374380;28;94793;-72
2023/06/10 21:51:39;;;;;;;;;;;24.60;45.40;;;;;;10374402;28;92802;-72
2023/06/10 21:56:46;;;;;;;;;;;24.60;45.70;;;;;;10374244;28;94576;-72
2023/06/10 22:01:48;;;;;;;;;;;24.60;45.90;;;;;;10355228;28;93535;-72
2023/06/10 22:06:50;;;;;;;;;;;24.50;46.10;;;;;;10371758;28;95948;-73
2023/06/10 22:11:51;;;;;;;;;;;24.50;46.30;;;;;;10373640;28;94672;-73
2023/06/10 22:16:53;;;;;;;;;;;24.50;46.50;;;;;;10372713;28;94569;-72
2023/06/10 22:21:55;;;;;;;;;;;24.50;46.90;;;;;;10372185;28;94740;-72
2023/06/10 22:26:56;;;;;;;;;;;24.50;47.10;;;;;;10372690;28;93492;-72
2023/06/10 22:31:58;;;;;;;;;;;24.40;47.20;;;;;;10372031;28;93265;-72
2023/06/10 22:37:00;;;;;;;;;;;24.40;47.30;;;;;;10372434;28;92907;-72
2023/06/10 22:42:04;;;;;;;;;;;24.40;47.60;;;;;;10372926;28;93815;-72
2023/06/10 22:47:06;;;;;;;;;;;24.40;47.90;;;;;;10372224;28;94097;-72
2023/06/10 22:52:11;;;;;;;;;;;24.40;48.10;;;;;;10372350;28;93731;-72
2023/06/10 22:57:13;;;;;;;;;;;24.40;48.40;;;;;;10370171;28;96786;-72
2023/06/10 23:02:14;;;;;;;;;;;24.30;48.50;;;;;;10372124;28;94545;-72
2023/06/10 23:07:19;;;;;;;;;;;24.30;48.90;;;;;;10372296;28;93683;-72
2023/06/10 23:12:21;;;;;;;;;;;24.30;49.10;;;;;;10355130;28;94363;-71
2023/06/10 23:17:23;;;;;;;;;;;24.30;49.30;;;;;;10371775;28;93961;-72
2023/06/10 23:22:25;;;;;;;;;;;24.20;49.60;;;;;;10371173;28;94749;-72
2023/06/10 23:27:27;;;;;;;;;;;24.20;49.80;;;;;;10354327;28;93495;-72
2023/06/10 23:32:30;;;;;;;;;;;24.20;50.00;;;;;;10370930;28;92593;-72
2023/06/10 23:37:33;;;;;;;;;;;24.20;50.20;;;;;;10370675;28;94825;-72
2023/06/10 23:42:34;;;;;;;;;;;24.20;50.40;;;;;;10352381;28;93455;-72
2023/06/10 23:47:37;;;;;;;;;;;24.20;50.50;;;;;;10368750;28;95732;-73
2023/06/10 23:52:40;;;;;;;;;;;24.20;50.70;;;;;;10370531;28;95834;-72
2023/06/10 23:57:41;;;;;;;;;;;24.20;51.90;;;;;;10352928;28;93429;-71
